Time;durP1;ratioP1;P1;durP2;ratioP2;P2;SDS_P1;SDS_P2;PMS_P1;PMS_P2;Temp;Humidity;BMP_temperature;BMP_pressure;BME280_temperature;BME280_humidity;BME280_pressure;Samples;Min_cycle;Max_cycle;Signal;HPM_P1;HPM_P2
2022/05/02 00:00:03;;;;;;;0.60;0.60;;;21.00;38.20;;;24.66;25.06;101933.78;6184916;23;20039;-15
2022/05/02 00:02:30;;;;;;;0.68;0.68;;;20.90;38.20;;;24.67;25.12;101926.59;6187354;23;20451;-15
2022/05/02 00:04:55;;;;;;;0.73;0.73;;;20.90;38.20;;;24.72;25.24;101945.91;6184825;23;20023;-15
2022/05/02 00:07:21;;;;;;;0.75;0.75;;;20.90;38.70;;;24.71;25.33;101930.84;6184363;23;20013;-15
2022/05/02 00:09:47;;;;;;;0.75;0.75;;;20.90;38.70;;;24.71;25.25;101931.69;6184894;23;20009;-16
2022/05/02 00:12:12;;;;;;;0.60;0.60;;;20.90;38.20;;;24.69;25.06;101928.25;6184707;23;20015;-16
2022/05/02 00:14:38;;;;;;;0.65;0.65;;;20.90;38.20;;;24.68;25.09;101928.34;6184324;23;20016;-15
2022/05/02 00:17:04;;;;;;;0.57;0.50;;;20.90;38.20;;;24.69;25.06;101925.56;6184453;23;20021;-15
2022/05/02 00:19:30;;;;;;;0.60;0.60;;;20.90;38.20;;;24.67;25.06;101918.59;6184316;23;20092;-16
2022/05/02 00:21:56;;;;;;;0.60;0.60;;;20.90;38.20;;;24.66;25.13;101922.19;6184412;23;20032;-16
2022/05/02 00:24:22;;;;;;;0.57;0.57;;;20.90;38.20;;;24.65;25.19;101921.34;6184653;23;20020;-15
2022/05/02 00:26:48;;;;;;;0.60;0.60;;;20.90;38.20;;;24.69;25.34;101930.03;6184259;23;20013;-16
2022/05/02 00:29:15;;;;;;;0.55;0.55;;;20.90;38.20;;;24.66;25.32;101923.09;6184059;23;20343;-15
2022/05/02 00:31:45;;;;;;;0.77;0.77;;;20.90;38.20;;;24.61;25.29;101911.81;6184216;23;20067;-16
2022/05/02 00:34:12;;;;;;;0.60;0.60;;;20.90;38.20;;;24.65;25.10;101913.31;6184817;23;20013;-15
2022/05/02 00:36:39;;;;;;;0.70;0.70;;;20.90;38.20;;;24.65;25.11;101904.44;6184922;23;20328;-15
2022/05/02 00:39:05;;;;;;;0.60;0.60;;;20.90;38.20;;;24.69;25.06;101911.31;6184263;23;20328;-16
2022/05/02 00:41:31;;;;;;;0.70;0.70;;;20.90;38.70;;;24.65;25.14;101902.63;6184294;23;20067;-16
2022/05/02 00:43:56;;;;;;;0.70;0.70;;;20.90;38.20;;;24.67;25.08;101910.56;6185530;23;20447;-16
2022/05/02 00:46:25;;;;;;;0.50;0.50;;;20.90;38.20;;;24.62;25.23;101889.44;6185781;23;20342;-16
2022/05/02 00:48:52;;;;;;;0.73;0.73;;;20.90;38.20;;;24.67;25.30;101899.88;6186280;23;20068;-15
2022/05/02 00:51:19;;;;;;;0.82;0.63;;;20.90;38.20;;;24.60;25.10;101889.53;6186071;23;20023;-15
2022/05/02 00:53:51;;;;;;;0.68;0.68;;;20.90;38.20;;;24.63;25.21;101895.69;6185653;23;20450;-15
2022/05/02 00:56:17;;;;;;;0.80;0.80;;;20.90;38.20;;;24.68;25.11;101902.44;6186113;23;20023;-16
2022/05/02 00:58:43;;;;;;;0.60;0.60;;;20.90;38.80;;;24.64;25.18;101903.59;6186111;23;20021;-15
2022/05/02 01:01:09;;;;;;;1.05;0.90;;;20.90;38.20;;;24.65;25.25;101904.44;6210281;23;20020;-15
2022/05/02 01:03:35;;;;;;;0.70;0.70;;;20.90;38.20;;;24.65;25.16;101905.31;6187338;23;20323;-15
2022/05/02 01:08:47;;;;;;;0.60;0.60;;;20.90;38.20;;;24.64;25.28;101911.63;6188219;23;20020;-15
2022/05/02 01:11:13;;;;;;;0.57;0.57;;;20.90;38.20;;;24.57;25.32;101903.13;6185402;23;20013;-15
2022/05/02 01:13:45;;;;;;;0.73;0.73;;;20.90;38.20;;;24.60;25.35;101904.72;6185386;23;20040;-16
2022/05/02 01:16:23;;;;;;;0.65;0.65;;;20.90;38.20;;;24.63;25.22;101912.56;6185498;23;20015;-15
2022/05/02 01:18:52;;;;;;;0.68;0.60;;;20.90;38.20;;;24.59;25.19;101901.22;6186100;23;20017;-15
2022/05/02 01:21:20;;;;;;;0.70;0.70;;;20.90;38.20;;;24.51;25.15;101891.91;6185987;23;20024;-15
2022/05/02 01:23:57;;;;;;;0.70;0.65;;;20.90;38.20;;;24.58;25.15;101901.28;6185426;23;20017;-15
2022/05/02 01:26:23;;;;;;;0.60;0.60;;;20.90;38.20;;;24.62;25.32;101905.50;6185549;23;20013;-15
2022/05/02 01:28:59;;;;;;;0.70;0.70;;;20.90;38.20;;;24.56;25.20;101895.19;6185256;23;20025;-16
2022/05/02 01:31:25;;;;;;;0.70;0.65;;;20.90;38.20;;;24.63;25.33;101909.03;6185507;23;20129;-15
2022/05/02 01:33:52;;;;;;;0.70;0.70;;;20.90;38.20;;;24.63;25.33;101912.56;6208185;23;20075;-15
2022/05/02 01:36:19;;;;;;;0.60;0.60;;;20.90;38.20;;;24.64;25.09;101918.75;6186016;23;20024;-15
2022/05/02 01:38:46;;;;;;;0.60;0.60;;;20.80;38.20;;;24.62;25.15;101908.16;6185275;23;20351;-15
2022/05/02 01:41:12;;;;;;;0.73;0.60;;;20.80;38.20;;;24.62;25.17;101909.97;6185797;23;20017;-15
2022/05/02 01:43:39;;;;;;;0.50;0.50;;;20.90;38.20;;;24.55;25.19;101898.81;6185929;23;20020;-15
2022/05/02 01:46:07;;;;;;;0.70;0.70;;;20.90;38.20;;;24.59;25.25;101903.00;6185361;23;20021;-15
2022/05/02 01:48:34;;;;;;;0.80;0.80;;;20.80;38.20;;;24.57;25.27;101903.13;6185594;23;20016;-15
2022/05/02 01:51:00;;;;;;;0.60;0.60;;;20.80;38.20;;;24.64;25.20;101902.72;6185390;23;20379;-15
2022/05/02 01:53:26;;;;;;;0.77;0.60;;;20.80;38.20;;;24.58;25.09;101896.78;6185299;23;20067;-15
2022/05/02 01:55:53;;;;;;;0.70;0.70;;;20.80;38.20;;;24.58;25.30;101890.59;6185603;23;20021;-15
2022/05/02 01:58:19;;;;;;;0.70;0.70;;;20.80;38.20;;;24.56;25.18;101887.16;6185288;23;20017;-16
2022/05/02 02:00:46;;;;;;;0.95;0.70;;;20.80;38.20;;;24.59;25.17;101897.66;6211066;23;20013;-16
2022/05/02 02:03:11;;;;;;;0.60;0.60;;;20.80;38.20;;;24.58;25.20;101898.63;6214371;23;20338;-15
2022/05/02 02:05:49;;;;;;;0.50;0.50;;;20.80;38.20;;;24.59;25.32;101892.31;6186227;23;20028;-15
2022/05/02 02:08:22;;;;;;;0.70;0.70;;;20.80;38.20;;;24.54;25.34;101886.34;6185919;23;20005;-16
2022/05/02 02:10:50;;;;;;;0.65;0.65;;;20.90;38.20;;;24.56;25.12;101892.50;6185945;23;20012;-16
2022/05/02 02:13:17;;;;;;;0.60;0.60;;;20.80;38.20;;;24.54;25.19;101883.66;6185304;23;20075;-15
2022/05/02 02:15:43;;;;;;;0.73;0.73;;;20.80;38.20;;;24.56;25.27;101893.38;6185232;23;20145;-15
2022/05/02 02:18:09;;;;;;;0.60;0.60;;;20.80;38.20;;;24.61;25.13;101898.44;6185531;23;20028;-15
2022/05/02 02:20:36;;;;;;;0.63;0.63;;;20.80;38.20;;;24.58;25.08;101882.56;6185026;23;20013;-15
2022/05/02 02:23:03;;;;;;;0.68;0.68;;;20.80;38.20;;;24.59;25.20;101884.28;6208222;23;20016;-15
2022/05/02 02:25:32;;;;;;;0.77;0.77;;;20.80;38.20;;;24.61;25.14;101893.09;6185108;23;20016;-15
2022/05/02 02:28:00;;;;;;;0.70;0.70;;;20.80;38.20;;;24.49;25.25;101869.72;6185276;23;20013;-15
2022/05/02 02:30:27;;;;;;;0.60;0.60;;;20.80;38.20;;;24.57;25.05;101887.06;6185115;23;20103;-15
2022/05/02 02:32:52;;;;;;;0.60;0.60;;;20.80;38.20;;;24.62;25.31;101891.25;6185005;23;20017;-16
2022/05/02 02:35:20;;;;;;;0.63;0.63;;;20.80;38.20;;;24.54;25.33;101879.22;6185226;23;20009;-16
2022/05/02 02:37:47;;;;;;;0.80;0.80;;;20.80;38.20;;;24.62;25.18;101885.91;6185538;23;20050;-15
2022/05/02 02:40:14;;;;;;;0.75;0.75;;;20.80;38.10;;;24.62;25.15;101885.91;6185137;23;20016;-16
2022/05/02 02:42:40;;;;;;;0.85;0.80;;;20.80;38.20;;;24.60;25.30;101878.84;6185678;23;20075;-15
2022/05/02 02:45:06;;;;;;;0.70;0.70;;;20.80;38.10;;;24.56;25.17;101877.31;6185078;23;20383;-16
2022/05/02 02:47:32;;;;;;;0.60;0.60;;;20.80;38.10;;;24.60;25.14;101869.97;6185055;23;20067;-15
2022/05/02 02:49:58;;;;;;;0.60;0.60;;;20.80;38.10;;;24.59;25.17;101857.53;6185023;23;20021;-15
2022/05/02 02:52:23;;;;;;;0.60;0.60;;;20.90;38.10;;;24.68;25.02;101873.03;6185396;23;20453;-15
2022/05/02 02:54:49;;;;;;;0.90;0.90;;;20.90;38.10;;;24.68;25.17;101872.19;6185092;23;20382;-16
2022/05/02 02:57:15;;;;;;;0.52;0.52;;;20.90;38.00;;;24.63;24.99;101853.75;6185354;23;20546;-15
2022/05/02 02:59:41;;;;;;;0.77;0.77;;;20.90;38.00;;;24.71;24.94;101869.31;6185436;23;20021;-15
2022/05/02 03:02:07;;;;;;;0.93;0.70;;;20.90;38.00;;;24.64;25.08;101852.78;6185025;23;20143;-15
2022/05/02 03:07:19;;;;;;;0.93;0.82;;;21.00;38.00;;;24.72;24.86;101863.00;6213178;23;20008;-16
2022/05/02 03:09:45;;;;;;;0.40;0.40;;;21.00;37.90;;;24.68;24.92;101854.31;6185822;23;20068;-15
2022/05/02 03:12:11;;;;;;;0.85;0.70;;;21.00;38.00;;;24.71;25.04;101853.28;6184914;23;20036;-16
2022/05/02 03:14:36;;;;;;;0.60;0.60;;;21.00;37.90;;;24.72;24.93;101850.47;6185526;23;20016;-15
2022/05/02 03:17:03;;;;;;;0.80;0.80;;;21.00;37.90;;;24.72;24.82;101849.63;6184911;23;20012;-15
2022/05/02 03:19:29;;;;;;;0.55;0.55;;;21.00;37.90;;;24.70;24.99;101849.72;6184829;23;20095;-15
2022/05/02 03:21:55;;;;;;;0.68;0.68;;;20.90;37.90;;;24.75;25.04;101862.81;6185475;23;20020;-15
2022/05/02 03:24:20;;;;;;;0.57;0.57;;;21.00;37.90;;;24.66;24.90;101847.31;6184767;23;20328;-15
2022/05/02 03:26:46;;;;;;;0.60;0.60;;;21.00;37.90;;;24.75;25.13;101858.31;6184923;23;20478;-15
2022/05/02 03:29:12;;;;;;;0.57;0.57;;;21.00;37.90;;;24.75;24.76;101854.78;6184579;23;20013;-15
2022/05/02 03:31:38;;;;;;;0.77;0.60;;;21.00;37.90;;;24.68;25.02;101846.28;6184805;23;20013;-15
2022/05/02 03:34:04;;;;;;;0.75;0.70;;;20.90;37.90;;;24.69;25.04;101852.47;6184833;23;20013;-15
2022/05/02 03:36:30;;;;;;;0.68;0.68;;;21.00;38.00;;;24.68;24.91;101851.63;6185343;23;20013;-16
2022/05/02 03:38:56;;;;;;;0.50;0.50;;;20.90;38.00;;;24.72;24.88;101854.97;6184664;23;20021;-16
2022/05/02 03:41:21;;;;;;;0.70;0.68;;;20.90;38.00;;;24.71;24.82;101856.78;6185484;23;20017;-15
2022/05/02 03:43:47;;;;;;;0.65;0.65;;;20.90;38.00;;;24.63;24.86;101843.03;6184618;23;20017;-15
2022/05/02 03:46:13;;;;;;;0.73;0.73;;;20.90;38.00;;;24.65;25.06;101845.63;6184851;23;20017;-16
2022/05/02 03:48:39;;;;;;;0.70;0.70;;;20.90;38.00;;;24.60;25.03;101841.41;6184470;23;20021;-15
2022/05/02 03:51:04;;;;;;;0.60;0.60;;;20.80;38.00;;;24.67;24.93;101854.41;6184620;23;20016;-15
2022/05/02 03:53:30;;;;;;;0.65;0.65;;;20.80;38.00;;;24.62;25.05;101852.00;6185292;23;20016;-16
2022/05/02 03:55:56;;;;;;;0.70;0.70;;;20.80;38.00;;;24.64;24.86;101868.84;6184520;23;20016;-15
2022/05/02 03:58:21;;;;;;;0.60;0.60;;;20.80;38.00;;;24.64;25.07;101870.63;6184524;23;20020;-15
2022/05/02 04:00:48;;;;;;;0.50;0.50;;;20.80;38.00;;;24.64;25.16;101867.97;6184908;23;20032;-16
2022/05/02 04:03:14;;;;;;;0.57;0.55;;;20.80;38.00;;;24.62;25.00;101867.19;6184531;23;20067;-16
2022/05/02 04:05:40;;;;;;;0.65;0.65;;;20.80;38.00;;;24.60;24.90;101859.28;6185066;23;20021;-16
2022/05/02 04:08:06;;;;;;;0.55;0.55;;;20.80;38.10;;;24.63;25.01;101858.25;6184350;23;20016;-16
2022/05/02 04:10:31;;;;;;;0.90;0.73;;;20.80;38.10;;;24.52;25.06;101853.50;6184768;23;20017;-16
2022/05/02 04:12:57;;;;;;;0.60;0.60;;;20.80;38.00;;;24.61;25.03;101866.34;6184627;23;20095;-16
2022/05/02 04:15:23;;;;;;;0.65;0.65;;;20.80;38.10;;;24.53;25.09;101844.53;6184400;23;20020;-16
2022/05/02 04:17:49;;;;;;;0.77;0.77;;;20.80;38.10;;;24.60;25.00;101860.13;6184520;23;20017;-16
2022/05/02 04:20:15;;;;;;;0.70;0.70;;;20.80;38.10;;;24.63;25.07;101858.25;6186346;23;20024;-16
2022/05/02 04:22:41;;;;;;;0.50;0.50;;;20.80;38.00;;;24.62;24.92;101859.19;6185731;23;20017;-16
2022/05/02 04:25:08;;;;;;;0.60;0.60;;;20.80;38.00;;;24.55;24.96;101843.50;6185973;23;20017;-16
2022/05/02 04:27:34;;;;;;;0.60;0.60;;;20.80;38.00;;;24.60;25.03;101852.09;6188562;23;20017;-16
2022/05/02 04:30:00;;;;;;;0.70;0.70;;;20.90;38.00;;;24.62;24.92;101849.34;6185486;23;20080;-16
2022/05/02 04:32:26;;;;;;;1.00;0.70;;;20.90;38.00;;;24.68;25.16;101865.00;6185669;23;20427;-16
2022/05/02 04:34:55;;;;;;;0.60;0.60;;;20.90;37.90;;;24.62;24.99;101846.66;6185903;23;20016;-16
2022/05/02 04:37:21;;;;;;;0.50;0.50;;;20.90;37.90;;;24.71;25.10;101869.31;6181590;23;20347;-16
2022/05/02 04:39:47;;;;;;;0.50;0.50;;;20.90;37.90;;;24.72;24.85;101873.69;6185528;23;20013;-16
2022/05/02 04:42:13;;;;;;;0.70;0.70;;;20.90;37.90;;;24.72;25.00;101869.19;6185488;23;20013;-16
2022/05/02 04:44:39;;;;;;;0.98;0.60;;;20.90;37.80;;;24.68;24.78;101856.97;6185618;23;20039;-16
2022/05/02 04:47:05;;;;;;;0.70;0.70;;;20.90;37.80;;;24.71;25.01;101863.97;6185605;23;20474;-16
2022/05/02 04:49:31;;;;;;;0.60;0.60;;;20.90;37.80;;;24.71;24.98;101867.50;6185576;23;20032;-16
2022/05/02 04:51:57;;;;;;;0.70;0.70;;;20.90;37.80;;;24.70;24.97;101865.75;6185264;23;20447;-16
2022/05/02 04:54:23;;;;;;;0.60;0.60;;;20.90;37.90;;;24.66;25.06;101858.91;6186256;23;20005;-16
2022/05/02 04:56:49;;;;;;;0.50;0.50;;;20.90;37.90;;;24.67;24.81;101865.09;6185555;23;20020;-16
2022/05/02 04:59:15;;;;;;;0.60;0.60;;;20.90;37.90;;;24.74;25.05;101872.66;6185568;23;20020;-16
2022/05/02 05:01:42;;;;;;;0.60;0.60;;;20.90;37.90;;;24.72;25.05;101876.38;6185478;23;20448;-16
2022/05/02 05:04:08;;;;;;;0.50;0.50;;;20.90;37.90;;;24.73;25.07;101875.44;6183881;23;20335;-16
2022/05/02 05:06:34;;;;;;;0.80;0.80;;;20.90;38.40;;;24.70;24.76;101870.25;6213184;23;20095;-16
2022/05/02 05:09:00;;;;;;;0.60;0.60;;;20.90;37.80;;;24.76;24.91;101875.25;6186669;23;20095;-16
2022/05/02 05:11:54;;;;;;;0.70;0.70;;;20.90;37.80;;;24.70;24.86;101867.59;6185952;23;20447;-16
2022/05/02 05:18:21;;;;;;;0.90;0.60;;;21.00;37.80;;;24.75;24.96;101863.66;6122531;23;20109;-16
2022/05/02 05:21:04;;;;;;;0.80;0.80;;;21.00;37.70;;;24.77;24.90;101866.25;6123465;23;20069;-16
2022/05/02 05:24:07;;;;;;;0.63;0.63;;;21.00;37.70;;;24.81;24.92;101867.78;6196069;23;20016;-16
2022/05/02 05:27:16;;;;;;;0.50;0.50;;;21.00;37.70;;;24.82;24.75;101857.94;6187218;23;20320;-16
2022/05/02 05:30:07;;;;;;;0.63;0.63;;;21.00;37.60;;;24.76;24.86;101845.81;6207364;23;20020;-16
2022/05/02 05:32:46;;;;;;;0.60;0.60;;;21.00;37.60;;;24.75;24.85;101844.94;6186995;23;20036;-16
2022/05/02 05:35:22;;;;;;;0.68;0.68;;;21.10;37.70;;;24.84;24.93;101854.22;6183765;23;20072;-16
2022/05/02 05:38:03;;;;;;;0.50;0.50;;;21.10;37.70;;;24.80;24.80;101849.16;6185233;23;20435;-16
2022/05/02 05:40:44;;;;;;;0.60;0.60;;;21.10;37.60;;;24.87;24.81;101845.13;6207838;23;20013;-16
2022/05/02 05:43:43;;;;;;;0.60;0.60;;;21.20;37.60;;;24.92;24.85;101851.91;6186335;23;20020;-16
2022/05/02 05:46:44;;;;;;;0.50;0.50;;;21.20;37.50;;;24.98;24.88;101858.69;6185245;23;20152;-16
2022/05/02 05:49:41;;;;;;;0.50;0.50;;;21.20;37.50;;;24.94;24.73;101854.47;6212323;23;20012;-15
2022/05/02 05:52:16;;;;;;;0.50;0.50;;;21.20;37.50;;;24.94;24.64;101851.81;6186889;23;20040;-15
2022/05/02 05:55:07;;;;;;;0.50;0.50;;;21.20;37.50;;;24.98;24.64;101858.69;6183494;23;20017;-16
2022/05/02 05:57:41;;;;;;;0.80;0.80;;;21.20;37.50;;;24.95;24.58;101848.19;6185156;23;20301;-16
2022/05/02 06:00:15;;;;;;;0.60;0.60;;;21.20;37.50;;;24.95;24.74;101853.53;6183125;23;20390;-16
2022/05/02 06:03:07;;;;;;;0.60;0.60;;;21.20;37.40;;;25.00;24.75;101859.44;6185547;23;20009;-16
2022/05/02 06:05:46;;;;;;;1.27;0.60;;;21.20;37.40;;;24.99;24.69;101859.53;6184963;23;20024;-17
2022/05/02 06:08:19;;;;;;;0.60;0.60;;;21.20;37.40;;;25.02;24.64;101862.88;6185447;23;20324;-16
2022/05/02 06:10:47;;;;;;;0.70;0.70;;;21.20;37.40;;;25.04;24.78;101861.00;6185142;23;20068;-16
2022/05/02 06:13:16;;;;;;;0.50;0.50;;;21.20;37.40;;;24.95;24.65;101848.19;6184583;23;20009;-17
2022/05/02 06:18:37;;;;;;;0.52;0.52;;;21.30;37.40;;;25.07;24.58;101857.25;6184905;23;20446;-16
2022/05/02 06:21:07;;;;;;;0.50;0.50;;;21.30;37.40;;;25.04;24.52;101865.47;6187455;23;20017;-16
2022/05/02 06:23:43;;;;;;;0.50;0.50;;;21.30;37.40;;;25.06;24.56;101860.88;6184780;23;20135;-17
2022/05/02 06:26:10;;;;;;;0.68;0.68;;;21.30;37.40;;;25.07;24.63;101866.13;6185400;23;20013;-17
2022/05/02 06:28:44;;;;;;;0.50;0.50;;;21.30;37.40;;;25.07;24.63;101868.78;6184548;23;20063;-17
2022/05/02 06:31:16;;;;;;;0.60;0.60;;;21.30;37.40;;;25.03;24.64;101855.72;6184597;23;20013;-16
2022/05/02 06:33:44;;;;;;;0.70;0.70;;;21.20;37.40;;;25.01;24.65;101857.63;6184797;23;20185;-16
2022/05/02 06:37:10;;;;;;;0.65;0.63;;;21.20;37.40;;;25.06;24.57;101861.75;6182821;23;20017;-16
2022/05/02 06:40:12;;;;;;;0.50;0.50;;;21.20;37.40;;;25.05;24.59;101865.38;6187617;23;20016;-16
2022/05/02 06:42:53;;;;;;;0.60;0.60;;;21.20;37.40;;;25.06;24.58;101860.88;6184593;23;20145;-16
2022/05/02 06:45:32;;;;;;;0.60;0.60;;;21.20;37.40;;;25.05;24.73;101859.16;6213827;23;20012;-17
2022/05/02 06:48:29;;;;;;;0.60;0.60;;;21.30;37.50;;;25.08;24.67;101865.19;6185752;23;20100;-16
2022/05/02 06:51:08;;;;;;;0.60;0.60;;;21.30;37.50;;;25.09;24.56;101861.56;6184471;23;20349;-16
2022/05/02 06:54:01;;;;;;;0.60;0.60;;;21.30;37.40;;;25.12;24.66;101868.50;6184752;23;20009;-16
2022/05/02 06:57:03;;;;;;;0.70;0.70;;;21.30;37.40;;;25.17;24.64;101860.19;6184179;23;20009;-16
2022/05/02 06:59:46;;;;;;;0.60;0.60;;;21.30;37.30;;;25.20;24.62;101865.34;6184338;23;20071;-16
2022/05/02 07:02:12;;;;;;;0.40;0.40;;;21.40;37.20;;;25.21;24.42;101845.63;6211342;23;20067;-16
2022/05/02 07:04:54;;;;;;;0.57;0.57;;;21.50;37.20;;;25.27;24.34;101867.56;6187661;23;20013;-16
2022/05/02 07:07:48;;;;;;;0.63;0.55;;;21.40;37.10;;;25.29;24.43;101864.78;6185072;23;20016;-16
2022/05/02 07:10:32;;;;;;;0.75;0.73;;;21.40;37.10;;;25.26;24.48;101859.59;6184381;23;20017;-17
2022/05/02 07:13:17;;;;;;;0.50;0.50;;;21.50;37.20;;;25.36;24.52;101862.56;6185199;23;20017;-17
2022/05/02 07:15:51;;;;;;;0.60;0.60;;;21.50;37.00;;;25.36;24.40;101849.19;6210866;23;20016;-17
2022/05/02 07:18:38;;;;;;;0.80;0.80;;;21.60;37.00;;;25.43;24.28;101867.44;6185495;23;20348;-16
2022/05/02 07:21:36;;;;;;;0.70;0.70;;;21.60;37.00;;;25.46;24.29;101863.69;6184225;23;20383;-16
2022/05/02 07:24:38;;;;;;;0.60;0.60;;;21.60;36.90;;;25.48;24.15;101859.94;6184366;23;20013;-17
2022/05/02 07:27:30;;;;;;;0.75;0.65;;;21.70;36.90;;;25.61;24.20;101862.69;6211739;23;20021;-17
2022/05/02 07:30:00;;;;;;;0.57;0.57;;;21.80;36.70;;;25.68;24.11;101861.31;6186445;23;20451;-16
2022/05/02 07:32:27;;;;;;;0.75;0.75;;;21.90;36.60;;;25.76;24.14;101859.94;6187755;23;20013;-16
2022/05/02 07:34:55;;;;;;;0.60;0.60;;;22.00;36.40;;;25.83;23.88;101858.59;6183183;23;20072;-16
2022/05/02 07:37:22;;;;;;;0.68;0.60;;;22.00;36.30;;;25.88;23.90;101859.13;6182625;23;20024;-16
2022/05/02 07:39:52;;;;;;;0.68;0.68;;;22.10;36.20;;;25.85;23.82;101845.94;6184267;23;20455;-16
2022/05/02 07:42:19;;;;;;;0.50;0.50;;;22.10;36.20;;;26.02;23.70;101864.44;6185088;23;20020;-16
2022/05/02 07:44:49;;;;;;;0.60;0.60;;;22.20;36.10;;;26.06;23.73;101863.28;6184467;23;20013;-15
2022/05/02 07:47:17;;;;;;;0.60;0.60;;;22.20;36.10;;;26.06;23.69;101846.31;6183975;23;20396;-16
2022/05/02 07:49:48;;;;;;;0.50;0.50;;;22.20;36.00;;;26.15;23.59;101860.94;6182088;23;20020;-15
2022/05/02 07:52:26;;;;;;;0.85;0.63;;;22.30;36.00;;;26.15;23.58;101851.06;6213014;23;20151;-16
2022/05/02 07:54:56;;;;;;;0.82;0.60;;;22.30;35.90;;;26.21;23.45;101858.69;6213752;23;20512;-18
2022/05/02 07:57:23;;;;;;;0.90;0.60;;;22.30;35.90;;;26.22;23.23;101848.81;6184718;23;20344;-16
2022/05/02 07:59:54;;;;;;;0.85;0.80;;;22.30;35.80;;;26.22;23.54;101852.34;6186423;23;20023;-16
2022/05/02 08:02:22;;;;;;;1.58;0.60;;;22.40;35.80;;;26.25;23.43;101843.25;6187103;23;20088;-16
2022/05/02 08:04:48;;;;;;;0.60;0.60;;;22.40;35.80;;;26.31;23.28;101853.56;6186743;23;20035;-17
2022/05/02 08:07:19;;;;;;;0.70;0.70;;;22.40;35.80;;;26.23;23.38;101838.00;6187275;23;20446;-17
2022/05/02 08:10:08;;;;;;;0.65;0.65;;;22.30;35.80;;;26.37;23.36;101862.97;6190278;23;20013;-16
2022/05/02 08:12:44;;;;;;;0.60;0.60;;;22.30;35.80;;;26.32;23.24;101849.88;6189399;23;20017;-16
2022/05/02 08:15:33;;;;;;;0.85;0.70;;;22.30;35.80;;;26.38;23.24;101851.28;6184160;23;20533;-17
2022/05/02 08:18:50;;;;;;;0.60;0.60;;;22.30;35.90;;;26.41;23.31;101848.38;6185668;23;20025;-17
2022/05/02 08:21:51;;;;;;;0.60;0.60;;;22.30;35.80;;;26.31;23.33;101837.47;6210636;23;20028;-16
2022/05/02 08:28:02;;;;;;;0.80;0.80;;;22.30;35.80;;;26.34;23.30;101850.63;6187270;23;20013;-16
2022/05/02 08:30:34;;;;;;;0.60;0.60;;;22.30;35.90;;;26.32;23.29;101849.88;6215724;23;20028;-17
2022/05/02 08:33:05;;;;;;;0.50;0.50;;;22.20;35.90;;;26.25;23.24;101835.22;6216111;23;20304;-16
2022/05/02 08:36:05;;;;;;;1.02;0.80;;;22.20;36.00;;;26.30;23.45;101849.16;6188282;23;20009;-17
2022/05/02 08:38:56;;;;;;;0.50;0.50;;;22.20;36.00;;;26.30;23.29;101845.63;6185748;23;20454;-17
2022/05/02 08:41:58;;;;;;;0.75;0.70;;;22.20;36.10;;;26.27;23.29;101841.31;6209579;23;20255;-16
2022/05/02 08:44:57;;;;;;;0.75;0.70;;;22.10;36.00;;;26.18;23.45;101834.78;6205108;23;20067;-16
2022/05/02 08:48:38;;;;;;;0.80;0.80;;;22.20;36.20;;;26.24;23.15;101828.13;6216079;23;20021;-16
2022/05/02 08:52:17;;;;;;;0.70;0.70;;;22.10;36.20;;;26.21;23.34;101834.56;6215353;23;20008;-16
2022/05/02 08:55:10;;;;;;;1.48;0.77;;;22.10;36.20;;;26.07;23.47;101810.53;6072990;23;20027;-18
2022/05/02 08:57:56;;;;;;;1.65;0.93;;;22.10;36.30;;;26.11;23.52;101824.56;6190438;23;20339;-16
2022/05/02 09:01:04;;;;;;;0.75;0.75;;;22.10;36.30;;;26.11;23.50;101827.25;6215141;23;20016;-17
2022/05/02 09:04:17;;;;;;;1.45;0.60;;;22.00;36.30;;;26.07;23.56;101832.81;6215574;23;20019;-16
2022/05/02 09:07:24;;;;;;;0.73;0.70;;;22.00;36.40;;;25.99;23.60;101800.31;6214059;23;20162;-16
2022/05/02 09:10:15;;;;;;;0.80;0.80;;;21.90;36.40;;;25.94;23.59;101802.44;6173613;23;20017;-16
2022/05/02 09:13:12;;;;;;;0.70;0.70;;;21.90;36.40;;;25.99;23.55;101805.69;6187792;23;20013;-16
2022/05/02 09:16:21;;;;;;;0.88;0.80;;;22.00;36.50;;;25.97;23.56;101802.25;6213299;23;20017;-17
2022/05/02 09:19:07;;;;;;;1.00;0.70;;;21.90;36.50;;;25.90;23.54;101808.97;6187052;23;20068;-17
2022/05/02 09:22:22;;;;;;;3.15;0.98;;;21.90;36.60;;;25.89;23.68;101808.13;6211625;23;20016;-17
2022/05/02 09:24:59;;;;;;;1.05;0.70;;;21.90;36.60;;;25.88;23.66;101814.44;6184564;23;20028;-17
2022/05/02 09:27:55;;;;;;;0.85;0.75;;;21.90;36.60;;;25.78;23.71;101789.22;6182538;23;20023;-17
2022/05/02 09:30:53;;;;;;;0.88;0.75;;;21.90;36.70;;;25.82;23.85;101798.75;6183518;23;20342;-16
2022/05/02 09:34:19;;;;;;;1.30;0.70;;;21.80;36.60;;;25.87;23.81;101806.50;6184202;23;20391;-17
2022/05/02 09:37:07;;;;;;;0.70;0.70;;;21.90;36.60;;;25.83;23.74;101799.66;6151219;23;20017;-16
2022/05/02 09:39:48;;;;;;;1.20;1.05;;;21.90;36.60;;;25.82;23.83;101797.91;6185119;23;20021;-16
2022/05/02 09:42:38;;;;;;;0.68;0.65;;;21.90;36.60;;;25.83;23.75;101795.13;6159458;23;20435;-16
2022/05/02 09:52:15;;;;;;;0.98;0.95;;;21.80;36.70;;;25.70;23.75;101778.19;6201416;23;20021;-16
2022/05/02 09:58:30;;;;;;;1.05;0.75;;;21.80;36.70;;;25.72;23.92;101778.06;6185013;23;20013;-16
2022/05/02 10:01:08;;;;;;;0.88;0.75;;;21.80;36.70;;;25.68;23.99;101774.75;6186434;23;20021;-16
2022/05/02 10:03:58;;;;;;;0.73;0.63;;;21.80;36.60;;;25.71;23.92;101777.22;6188264;23;20017;-17
2022/05/02 10:06:41;;;;;;;1.27;0.80;;;21.80;36.60;;;25.66;23.79;101766.81;6185222;23;20099;-16
2022/05/02 10:09:51;;;;;;;1.63;1.02;;;21.80;36.60;;;25.76;23.80;101780.44;6184960;23;20017;-17
2022/05/02 10:12:27;;;;;;;1.00;0.90;;;21.80;36.50;;;25.75;23.59;101777.88;6181309;23;20013;-18
2022/05/02 10:15:14;;;;;;;0.70;0.70;;;21.80;36.50;;;25.74;23.78;101776.16;6184533;23;20063;-17
2022/05/02 10:18:14;;;;;;;1.42;0.73;;;21.80;36.60;;;25.73;23.84;101769.94;6184529;23;20012;-16
2022/05/02 10:20:54;;;;;;;1.13;0.95;;;21.80;36.60;;;25.54;23.84;101742.69;6186099;23;20021;-17
2022/05/02 10:23:45;;;;;;;1.90;1.00;;;21.80;36.60;;;25.66;23.76;101750.75;6186402;23;20491;-17
2022/05/02 10:26:37;;;;;;;0.60;0.60;;;21.70;36.60;;;25.72;23.69;101754.81;6187556;23;20447;-16
2022/05/02 10:29:51;;;;;;;1.30;1.05;;;21.70;36.50;;;25.69;23.86;101755.03;6210721;23;20023;-16
2022/05/02 10:32:51;;;;;;;1.10;1.00;;;21.80;36.60;;;25.68;23.56;101751.50;6186486;23;20313;-16
2022/05/02 10:35:19;;;;;;;2.05;0.95;;;21.70;36.50;;;25.66;23.85;101748.06;6184914;23;20024;-17
2022/05/02 10:38:00;;;;;;;0.80;0.80;;;21.70;36.50;;;25.59;23.86;101741.41;6184735;23;20009;-16
2022/05/02 10:40:40;;;;;;;;;;;21.70;36.50;;;25.76;23.56;101736.72;6213261;23;20060;-16
2022/05/02 10:43:11;;;;;;;2.55;1.27;;;21.70;36.50;;;25.67;23.61;101733.69;6185777;23;20315;-16
2022/05/02 10:45:39;;;;;;;;;;;21.80;36.50;;;25.72;23.62;101722.69;6183488;23;20009;-22
2022/05/02 10:48:53;;;;;;;3.67;1.20;;;21.70;36.40;;;25.73;23.62;101739.59;6208058;23;19918;-22
2022/05/02 10:51:51;;;;;;;1.27;0.80;;;21.80;36.40;;;25.68;23.79;101730.06;6206612;23;20020;-17
2022/05/02 10:54:50;;;;;;;2.05;1.00;;;21.80;36.40;;;25.63;23.84;101723.31;6211118;23;20115;-17
2022/05/02 10:57:30;;;;;;;2.00;1.08;;;21.70;36.30;;;25.60;23.68;101720.84;6186442;23;20135;-17
2022/05/02 11:00:06;;;;;;;1.60;1.25;;;21.70;36.30;;;25.67;23.65;101728.34;6183622;23;20088;-16
2022/05/02 11:02:54;;;;;;;2.50;1.60;;;21.70;36.30;;;25.67;23.88;101731.03;6183947;23;20013;-17
2022/05/02 11:06:18;;;;;;;2.03;1.20;;;21.70;36.30;;;25.68;23.65;101718.50;6185000;23;20024;-16
2022/05/02 11:08:50;;;;;;;8.48;1.42;;;21.80;36.30;;;25.64;23.78;101717.88;6171032;23;20128;-17
2022/05/02 11:11:50;;;;;;;3.45;1.50;;;21.80;36.20;;;25.61;23.67;101707.34;6184379;23;20013;-17
2022/05/02 11:14:47;;;;;;;3.28;1.35;;;21.70;36.10;;;25.66;23.66;101712.38;6184472;23;20019;-17
2022/05/02 11:17:57;;;;;;;2.25;1.15;;;21.80;36.20;;;25.68;23.61;101723.88;6207312;23;20032;-17